Time;durP1;ratioP1;P1;durP2;ratioP2;P2;SDS_P1;SDS_P2;PMS_P1;PMS_P2;Temp;Humidity;BMP_temperature;BMP_pressure;BME280_temperature;BME280_humidity;BME280_pressure;Samples;Min_cycle;Max_cycle;Signal;HPM_P1;HPM_P2
2022/06/20 00:01:10;;;;;;;10.98;1.92;;;16.10;99.90;;;;;;5039540;28;20029;-69
2022/06/20 00:03:41;;;;;;;8.45;2.00;;;16.00;99.90;;;;;;5039599;28;20313;-69
2022/06/20 00:06:18;;;;;;;4.72;1.50;;;16.20;99.90;;;;;;5056647;28;20158;-69
2022/06/20 00:08:44;;;;;;;9.93;1.75;;;16.00;99.90;;;;;;5056668;28;20393;-68
2022/06/20 00:11:19;;;;;;;9.25;1.60;;;16.00;99.90;;;;;;5056575;28;20044;-69
2022/06/20 00:13:48;;;;;;;8.68;2.00;;;16.00;99.90;;;;;;5057028;28;20025;-68
2022/06/20 00:16:16;;;;;;;10.13;1.50;;;15.80;99.90;;;;;;5057683;28;20130;-69
2022/06/20 00:18:43;;;;;;;8.02;1.58;;;15.70;99.90;;;;;;5057673;28;20179;-69
2022/06/20 00:21:14;;;;;;;5.85;1.60;;;15.50;99.90;;;;;;5056703;28;20029;-69
2022/06/20 00:23:41;;;;;;;12.07;2.00;;;15.60;99.90;;;;;;5056351;28;20033;-69
2022/06/20 00:26:07;;;;;;;6.70;1.70;;;15.80;99.90;;;;;;5056624;28;20086;-68
2022/06/20 00:28:34;;;;;;;10.13;1.80;;;16.00;99.90;;;;;;5056525;28;20037;-68
2022/06/20 00:31:01;;;;;;;8.48;1.60;;;16.10;99.90;;;;;;5056357;28;20081;-69
2022/06/20 00:33:27;;;;;;;5.43;1.50;;;16.20;99.90;;;;;;5056514;28;20041;-69
2022/06/20 00:35:53;;;;;;;8.77;1.77;;;16.30;99.90;;;;;;5056198;28;20441;-69
2022/06/20 00:38:21;;;;;;;9.02;1.70;;;16.40;99.90;;;;;;5056327;28;20116;-68
2022/06/20 00:40:53;;;;;;;10.02;2.20;;;16.40;99.90;;;;;;5055945;28;20431;-69
2022/06/20 00:43:40;;;;;;;6.32;1.48;;;16.40;99.90;;;;;;5055581;28;20322;-68
2022/06/20 00:46:11;;;;;;;9.73;2.30;;;16.40;99.90;;;;;;5056299;28;20099;-68
2022/06/20 00:48:52;;;;;;;9.02;1.60;;;16.20;99.90;;;;;;5056325;28;20060;-68
2022/06/20 00:51:41;;;;;;;8.13;1.73;;;16.10;99.90;;;;;;5056224;28;20124;-69
2022/06/20 00:54:51;;;;;;;7.80;1.60;;;16.10;99.90;;;;;;5056249;28;20045;-69
2022/06/20 00:57:38;;;;;;;12.75;1.92;;;16.00;99.90;;;;;;5030569;28;20139;-69
2022/06/20 01:00:07;;;;;;;7.50;1.67;;;15.90;99.90;;;;;;5059096;28;20029;-69
2022/06/20 01:02:37;;;;;;;6.10;1.85;;;15.90;99.90;;;;;;5042452;28;20025;-68
2022/06/20 01:05:08;;;;;;;9.88;1.70;;;15.80;99.90;;;;;;5042517;28;20044;-68
2022/06/20 01:07:48;;;;;;;3.70;1.40;;;15.80;99.90;;;;;;5059967;28;20041;-69
2022/06/20 01:10:16;;;;;;;10.27;1.95;;;15.80;99.90;;;;;;5059794;28;20346;-69
2022/06/20 01:12:53;;;;;;;9.57;1.73;;;15.90;99.90;;;;;;5059684;28;20029;-69
2022/06/20 01:15:25;;;;;;;6.53;1.67;;;15.90;99.90;;;;;;5059667;28;20021;-68
2022/06/20 01:17:51;;;;;;;4.97;1.45;;;15.90;99.90;;;;;;5059621;28;20454;-68
2022/06/20 01:20:20;;;;;;;5.18;1.60;;;15.80;99.90;;;;;;5059572;28;20040;-68
2022/06/20 01:23:05;;;;;;;5.97;1.52;;;15.90;99.90;;;;;;5059430;28;20025;-69
2022/06/20 01:25:55;;;;;;;7.65;1.98;;;16.00;99.90;;;;;;5060064;28;20032;-69
2022/06/20 01:28:28;;;;;;;9.77;1.70;;;16.10;99.90;;;;;;5059676;28;20416;-68
2022/06/20 01:30:57;;;;;;;7.38;1.40;;;16.10;99.90;;;;;;5042143;28;20293;-68
2022/06/20 01:33:23;;;;;;;4.78;1.20;;;16.10;99.90;;;;;;5059459;28;20274;-68
2022/06/20 01:38:37;;;;;;;5.60;1.30;;;16.10;99.90;;;;;;5041856;28;20119;-67
2022/06/20 01:43:49;;;;;;;7.13;1.55;;;16.10;99.90;;;;;;5059036;28;20033;-69
2022/06/20 01:46:16;;;;;;;6.18;1.25;;;15.90;99.90;;;;;;5059027;28;20017;-67
2022/06/20 01:48:55;;;;;;;7.85;1.50;;;16.00;99.90;;;;;;5059089;28;20411;-67
2022/06/20 01:51:28;;;;;;;5.28;1.30;;;15.80;99.90;;;;;;5058907;28;20152;-68
2022/06/20 01:53:56;;;;;;;5.00;0.98;;;15.80;99.90;;;;;;5058911;28;20040;-67
2022/06/20 01:56:25;;;;;;;6.03;1.20;;;15.80;99.90;;;;;;5059388;28;20372;-67
2022/06/20 01:59:06;;;;;;;5.95;1.30;;;15.80;99.90;;;;;;5058937;28;20037;-67
2022/06/20 02:01:35;;;;;;;8.20;1.30;;;15.80;99.90;;;;;;5058866;28;20037;-67
2022/06/20 02:04:06;;;;;;;4.20;1.17;;;15.80;99.90;;;;;;5041441;28;20462;-65
2022/06/20 02:06:35;;;;;;;5.78;1.52;;;15.80;99.90;;;;;;5042179;28;20116;-68
2022/06/20 02:09:01;;;;;;;5.63;1.42;;;15.80;99.90;;;;;;5041082;28;20029;-67
2022/06/20 02:11:33;;;;;;;5.63;1.58;;;15.70;99.90;;;;;;5041480;28;20386;-68
2022/06/20 02:14:20;;;;;;;3.75;1.30;;;15.70;99.90;;;;;;5058758;28;20061;-68
2022/06/20 02:16:53;;;;;;;5.65;1.30;;;15.60;99.90;;;;;;5058132;28;20041;-67
2022/06/20 02:19:27;;;;;;;7.60;1.52;;;15.60;99.90;;;;;;5058565;28;20032;-67
2022/06/20 02:21:57;;;;;;;7.38;1.70;;;15.70;99.90;;;;;;5041211;28;20044;-67
2022/06/20 02:24:27;;;;;;;5.65;1.45;;;15.60;99.90;;;;;;5040971;28;20421;-67
2022/06/20 02:26:57;;;;;;;6.82;1.38;;;15.60;99.90;;;;;;5058189;28;20032;-68
2022/06/20 02:29:26;;;;;;;5.55;1.38;;;15.60;99.90;;;;;;5040878;28;20032;-68
2022/06/20 02:32:21;;;;;;;4.85;1.30;;;15.50;99.90;;;;;;5058374;28;20021;-66
2022/06/20 02:34:47;;;;;;;6.72;1.50;;;15.50;99.90;;;;;;5055206;28;20063;-68
2022/06/20 02:37:23;;;;;;;5.43;1.35;;;15.50;99.90;;;;;;5058076;28;20064;-66
2022/06/20 02:39:53;;;;;;;8.45;1.35;;;15.40;99.90;;;;;;5058117;28;20040;-66
2022/06/20 02:42:29;;;;;;;6.82;1.63;;;15.30;99.90;;;;;;5058041;28;20048;-67
2022/06/20 02:45:00;;;;;;;10.43;1.80;;;15.50;99.90;;;;;;5057939;28;20134;-67
2022/06/20 02:47:27;;;;;;;8.68;1.80;;;15.40;99.90;;;;;;5058144;28;20401;-67
2022/06/20 02:49:56;;;;;;;5.63;1.67;;;15.30;99.90;;;;;;5057909;28;20021;-67
2022/06/20 02:52:33;;;;;;;5.22;1.52;;;15.30;99.90;;;;;;5057880;28;20039;-68
2022/06/20 02:55:00;;;;;;;8.35;1.80;;;15.30;99.90;;;;;;5041205;28;20140;-68
2022/06/20 02:57:48;;;;;;;7.18;2.05;;;15.40;99.90;;;;;;5057626;28;20036;-66
2022/06/20 03:00:22;;;;;;;7.65;1.90;;;15.40;99.90;;;;;;5058227;28;20033;-65
2022/06/20 03:02:55;;;;;;;6.13;1.80;;;15.40;99.90;;;;;;5056714;28;20043;-65
2022/06/20 03:05:21;;;;;;;7.80;1.85;;;15.30;99.90;;;;;;5057504;28;20301;-66
2022/06/20 03:07:49;;;;;;;6.65;1.75;;;15.40;99.90;;;;;;5057555;28;20090;-67
2022/06/20 03:10:44;;;;;;;7.18;1.90;;;15.20;99.90;;;;;;5057532;28;20352;-67
2022/06/20 03:13:12;;;;;;;5.43;1.40;;;15.20;99.90;;;;;;5054291;28;20041;-67
2022/06/20 03:15:40;;;;;;;8.13;1.50;;;15.20;99.90;;;;;;5057309;28;20086;-67
2022/06/20 03:18:06;;;;;;;4.32;1.30;;;15.20;99.90;;;;;;5057223;28;20033;-66
2022/06/20 03:20:34;;;;;;;6.78;1.80;;;15.20;99.90;;;;;;5057277;28;20401;-67
2022/06/20 03:23:12;;;;;;;6.47;1.60;;;15.20;99.90;;;;;;5056574;28;20389;-66
2022/06/20 03:25:40;;;;;;;5.05;1.73;;;15.30;99.90;;;;;;5056500;28;20025;-66
2022/06/20 03:28:15;;;;;;;6.97;1.88;;;15.20;99.90;;;;;;5057072;28;20029;-67
2022/06/20 03:30:42;;;;;;;10.68;1.80;;;15.20;99.90;;;;;;5057112;28;20025;-66
2022/06/20 03:33:13;;;;;;;10.23;1.77;;;15.10;99.90;;;;;;5056967;28;20036;-66
2022/06/20 03:36:05;;;;;;;8.50;2.45;;;15.20;99.90;;;;;;5056755;28;20060;-66
2022/06/20 03:38:32;;;;;;;8.05;1.80;;;15.20;99.90;;;;;;5055926;28;20041;-66
2022/06/20 03:40:58;;;;;;;7.00;2.25;;;15.20;99.90;;;;;;5057576;28;20114;-69
2022/06/20 03:43:26;;;;;;;9.32;2.13;;;15.30;99.90;;;;;;5056905;28;20048;-66
2022/06/20 03:45:58;;;;;;;8.00;2.15;;;15.40;99.90;;;;;;5057117;28;20301;-66
2022/06/20 03:48:34;;;;;;;10.50;2.40;;;15.50;99.90;;;;;;5056655;28;20025;-67
2022/06/20 03:51:05;;;;;;;11.15;2.55;;;15.50;99.90;;;;;;5056032;28;20044;-67
2022/06/20 03:53:38;;;;;;;9.13;2.15;;;15.60;99.90;;;;;;5039386;28;20035;-66
2022/06/20 03:56:24;;;;;;;7.50;2.28;;;15.60;99.90;;;;;;5057353;28;20380;-66
2022/06/20 03:59:14;;;;;;;6.68;2.20;;;15.50;99.90;;;;;;5056750;28;20102;-66
2022/06/20 04:01:59;;;;;;;12.63;2.30;;;15.50;99.90;;;;;;5056566;28;20408;-65
2022/06/20 04:04:35;;;;;;;7.10;2.40;;;15.60;99.90;;;;;;5056719;28;20239;-66
2022/06/20 04:07:10;;;;;;;12.48;2.38;;;15.60;99.90;;;;;;5057077;28;20021;-66
2022/06/20 04:12:58;;;;;;;9.35;2.30;;;15.60;99.90;;;;;;5056656;28;20021;-66
2022/06/20 04:15:50;;;;;;;8.52;2.28;;;15.60;99.90;;;;;;5056454;28;20033;-66
2022/06/20 04:18:31;;;;;;;8.32;2.30;;;15.70;99.90;;;;;;5056626;28;20040;-66
2022/06/20 04:21:02;;;;;;;8.57;2.28;;;15.70;99.90;;;;;;5057064;28;20025;-66
2022/06/20 04:23:39;;;;;;;8.95;2.25;;;15.70;99.90;;;;;;5056500;28;20039;-66
2022/06/20 04:26:51;;;;;;;10.15;2.30;;;15.70;99.90;;;;;;5056925;28;20355;-66
2022/06/20 04:29:28;;;;;;;12.02;1.92;;;15.80;99.90;;;;;;5020566;28;20033;-65
2022/06/20 04:32:11;;;;;;;11.30;2.38;;;15.80;99.90;;;;;;5056533;28;20122;-66
2022/06/20 04:34:49;;;;;;;5.88;2.13;;;15.80;99.90;;;;;;5060768;28;20029;-66
2022/06/20 04:37:33;;;;;;;8.57;2.30;;;15.80;99.90;;;;;;5060224;28;20070;-66
2022/06/20 04:40:14;;;;;;;14.15;2.60;;;15.90;99.90;;;;;;5042961;28;20047;-66
2022/06/20 04:42:45;;;;;;;12.17;2.93;;;15.90;99.90;;;;;;5060300;28;20123;-66
2022/06/20 04:45:18;;;;;;;9.02;2.67;;;16.00;99.90;;;;;;5060244;28;20052;-66
2022/06/20 04:47:54;;;;;;;7.65;2.05;;;16.00;99.90;;;;;;5060256;28;20041;-66
2022/06/20 04:50:23;;;;;;;6.68;2.00;;;16.00;99.90;;;;;;5042823;28;20445;-66
2022/06/20 04:52:52;;;;;;;10.60;2.78;;;15.90;99.90;;;;;;5059244;28;20031;-66
2022/06/20 04:55:22;;;;;;;9.32;2.70;;;15.90;99.90;;;;;;5060206;28;20040;-66
2022/06/20 04:57:48;;;;;;;10.68;2.67;;;15.90;99.90;;;;;;5060245;28;20071;-66
2022/06/20 05:00:29;;;;;;;7.40;2.40;;;15.90;99.90;;;;;;5060182;28;20048;-67
2022/06/20 05:02:57;;;;;;;9.07;2.33;;;16.00;99.90;;;;;;5042503;28;20048;-65
2022/06/20 05:05:27;;;;;;;8.57;2.38;;;16.00;99.90;;;;;;5060162;28;20320;-65
2022/06/20 05:07:53;;;;;;;5.68;2.20;;;16.00;99.90;;;;;;5060219;28;20405;-65
2022/06/20 05:10:33;;;;;;;11.23;2.40;;;16.10;99.90;;;;;;5059716;28;20036;-65
2022/06/20 05:13:07;;;;;;;10.68;2.67;;;16.20;99.90;;;;;;5059693;28;20031;-65
2022/06/20 05:15:46;;;;;;;14.15;2.92;;;16.10;99.90;;;;;;5059684;28;20087;-64
2022/06/20 05:18:37;;;;;;;8.10;2.17;;;16.10;99.90;;;;;;5059578;28;20090;-65
2022/06/20 05:21:26;;;;;;;12.93;2.38;;;16.10;99.90;;;;;;5059715;28;20336;-64
2022/06/20 05:23:56;;;;;;;6.07;1.90;;;16.20;99.90;;;;;;5059380;28;20385;-65
2022/06/20 05:26:34;;;;;;;10.18;2.67;;;16.20;99.90;;;;;;5059396;28;20021;-66
2022/06/20 05:29:06;;;;;;;15.25;2.83;;;16.30;99.90;;;;;;5059834;28;20021;-67
2022/06/20 05:31:42;;;;;;;10.40;2.40;;;16.40;99.90;;;;;;5059546;28;20104;-65
2022/06/20 05:34:21;;;;;;;7.43;2.13;;;16.30;99.90;;;;;;5059933;28;20050;-66
2022/06/20 05:37:00;;;;;;;10.27;2.20;;;16.30;99.90;;;;;;5059132;28;20405;-66
2022/06/20 05:39:29;;;;;;;5.70;1.80;;;16.40;99.90;;;;;;5059879;28;20029;-65
2022/06/20 05:41:55;;;;;;;5.20;1.80;;;16.40;99.90;;;;;;5041908;28;20082;-66
2022/06/20 05:44:21;;;;;;;6.75;1.77;;;16.50;99.90;;;;;;5058489;28;20376;-65
2022/06/20 05:46:58;;;;;;;8.05;2.20;;;16.70;99.90;;;;;;5041702;28;20135;-66
2022/06/20 05:49:32;;;;;;;7.47;2.30;;;16.80;99.90;;;;;;5059538;28;20044;-65
2022/06/20 05:51:59;;;;;;;7.90;1.55;;;17.00;99.90;;;;;;5058966;28;20113;-65
2022/06/20 05:54:40;;;;;;;5.50;1.77;;;17.20;99.90;;;;;;5058877;28;20029;-65
2022/06/20 05:57:12;;;;;;;6.88;2.00;;;17.30;99.90;;;;;;5059029;28;20429;-66
2022/06/20 05:59:48;;;;;;;8.85;1.90;;;17.30;99.90;;;;;;5041506;28;20032;-65
2022/06/20 06:02:35;;;;;;;5.93;1.83;;;17.00;99.90;;;;;;5058739;28;20083;-66
2022/06/20 06:05:28;;;;;;;8.02;1.75;;;17.00;99.90;;;;;;5058708;28;20036;-66
2022/06/20 06:08:20;;;;;;;6.05;1.92;;;16.90;99.90;;;;;;5058796;28;20033;-65
2022/06/20 06:10:50;;;;;;;10.00;2.25;;;17.00;99.90;;;;;;5059206;28;20061;-65
2022/06/20 06:13:33;;;;;;;7.25;1.90;;;17.00;99.90;;;;;;5041708;28;20462;-67
2022/06/20 06:19:00;;;;;;;4.53;1.98;;;17.20;99.90;;;;;;5059064;28;20048;-66
2022/06/20 06:21:27;;;;;;;8.88;1.90;;;17.20;99.90;;;;;;5058369;28;20036;-65
2022/06/20 06:23:53;;;;;;;8.52;1.67;;;17.20;99.90;;;;;;5041260;28;20086;-64
2022/06/20 06:26:19;;;;;;;5.32;1.65;;;17.50;99.90;;;;;;5024346;28;20060;-67
2022/06/20 06:28:48;;;;;;;6.10;1.90;;;17.70;99.90;;;;;;5041689;28;20116;-67
2022/06/20 06:31:48;;;;;;;7.30;1.73;;;17.90;99.90;;;;;;5057524;28;20347;-66
2022/06/20 06:34:28;;;;;;;6.43;1.80;;;17.80;99.90;;;;;;5015504;28;20405;-69
2022/06/20 06:36:59;;;;;;;7.05;1.88;;;17.90;99.90;;;;;;5058011;28;20120;-70
2022/06/20 06:39:31;;;;;;;6.35;1.70;;;17.80;99.90;;;;;;5058132;28;20043;-68
2022/06/20 06:41:59;;;;;;;7.07;1.67;;;17.70;99.90;;;;;;5058054;28;20037;-67
2022/06/20 06:44:42;;;;;;;5.63;1.65;;;17.80;99.90;;;;;;5057948;28;20037;-67
2022/06/20 06:47:38;;;;;;;;;;;17.80;99.90;;;;;;5058415;28;20040;-68
2022/06/20 06:50:43;;;;;;;8.68;1.50;;;17.80;99.90;;;;;;5040980;28;19908;-68
2022/06/20 06:53:50;;;;;;;9.35;2.17;;;17.70;99.90;;;;;;5010859;28;20045;-67
2022/06/20 06:56:24;;;;;;;7.40;1.83;;;17.60;99.90;;;;;;5057263;28;20032;-68
2022/06/20 06:59:01;;;;;;;6.97;1.75;;;17.60;99.90;;;;;;5057668;28;20033;-69
2022/06/20 07:01:33;;;;;;;4.65;1.52;;;17.60;99.90;;;;;;5024202;28;20102;-69
2022/06/20 07:04:05;;;;;;;5.85;1.50;;;17.60;99.90;;;;;;5057631;28;20352;-71
2022/06/20 07:06:46;;;;;;;4.25;1.80;;;17.60;99.90;;;;;;5058057;28;20029;-68
2022/06/20 07:09:27;;;;;;;5.65;1.55;;;17.60;99.90;;;;;;5057212;28;20116;-68
2022/06/20 07:12:12;;;;;;;6.63;1.85;;;17.60;99.90;;;;;;5057522;28;20025;-68
2022/06/20 07:14:43;;;;;;;6.25;1.95;;;17.40;99.90;;;;;;5056927;28;20051;-67
2022/06/20 07:17:16;;;;;;;6.15;1.80;;;17.50;99.90;;;;;;5057391;28;20348;-67
2022/06/20 07:19:45;;;;;;;7.43;1.80;;;17.70;99.90;;;;;;5040788;28;20108;-69
2022/06/20 07:22:14;;;;;;;6.68;1.67;;;17.80;99.90;;;;;;5057362;28;20380;-67
2022/06/20 07:24:43;;;;;;;4.90;1.50;;;18.00;99.90;;;;;;5057224;28;20072;-68
2022/06/20 07:27:12;;;;;;;6.20;1.30;;;18.10;99.90;;;;;;5056411;28;20029;-67
2022/06/20 07:30:10;;;;;;;6.10;1.50;;;18.10;99.90;;;;;;5056536;28;20403;-72
2022/06/20 07:32:48;;;;;;;5.18;1.60;;;18.20;99.90;;;;;;5051781;28;20452;-69
2022/06/20 07:35:20;;;;;;;7.05;1.63;;;18.20;99.90;;;;;;5057564;28;20090;-69
2022/06/20 07:38:18;;;;;;;4.68;1.25;;;18.20;99.90;;;;;;5057023;28;20082;-69
2022/06/20 07:40:56;;;;;;;4.97;1.33;;;18.10;99.90;;;;;;5057084;28;20017;-67
2022/06/20 07:43:39;;;;;;;4.03;1.25;;;18.10;99.90;;;;;;5056914;28;20033;-66
2022/06/20 07:46:37;;;;;;;6.20;1.48;;;18.00;99.90;;;;;;5041086;28;20036;-68
2022/06/20 07:49:10;;;;;;;5.57;1.33;;;17.90;99.90;;;;;;5053968;28;20033;-67
2022/06/20 07:51:39;;;;;;;3.70;1.10;;;18.10;99.90;;;;;;5056729;28;20040;-70
2022/06/20 07:54:27;;;;;;;3.42;1.10;;;18.20;99.90;;;;;;5056879;28;20044;-67
2022/06/20 07:57:12;;;;;;;4.53;1.30;;;18.30;99.90;;;;;;5056869;28;20039;-67
2022/06/20 07:59:52;;;;;;;6.93;1.30;;;18.50;99.90;;;;;;5056713;28;20175;-69
2022/06/20 08:02:40;;;;;;;2.78;1.00;;;18.50;99.90;;;;;;5056556;28;20045;-68
2022/06/20 08:05:10;;;;;;;3.90;1.30;;;18.70;99.90;;;;;;5056169;28;20063;-67
2022/06/20 08:07:46;;;;;;;4.47;1.20;;;19.00;99.90;;;;;;5058357;28;20144;-67
2022/06/20 08:10:29;;;;;;;2.92;1.20;;;19.40;99.90;;;;;;5063258;28;20028;-67
2022/06/20 08:13:14;;;;;;;3.30;1.02;;;19.50;99.90;;;;;;5063104;28;20039;-68
2022/06/20 08:15:42;;;;;;;4.80;1.33;;;19.50;99.90;;;;;;5063329;28;20029;-69
2022/06/20 08:18:08;;;;;;;3.13;1.10;;;19.60;99.90;;;;;;5063249;28;20053;-68
2022/06/20 08:20:40;;;;;;;4.28;1.20;;;19.50;99.90;;;;;;5063191;28;20021;-68
2022/06/20 08:23:20;;;;;;;5.82;1.52;;;19.30;99.90;;;;;;5063199;28;20024;-67
2022/06/20 08:26:01;;;;;;;5.38;1.20;;;19.10;99.90;;;;;;5045855;28;20064;-68
2022/06/20 08:28:40;;;;;;;4.28;1.10;;;18.80;99.90;;;;;;5062585;28;20059;-67
2022/06/20 08:31:15;;;;;;;3.85;1.10;;;18.70;99.90;;;;;;5045908;28;20032;-65
2022/06/20 08:33:56;;;;;;;3.80;1.33;;;18.80;99.90;;;;;;5063575;28;20043;-67
2022/06/20 08:36:33;;;;;;;2.58;1.30;;;19.00;99.90;;;;;;5062915;28;20049;-68
2022/06/20 08:39:03;;;;;;;3.63;1.20;;;19.10;99.90;;;;;;5063015;28;20390;-67
2022/06/20 08:41:40;;;;;;;5.05;1.33;;;19.10;99.90;;;;;;5063208;28;20116;-68
2022/06/20 08:44:32;;;;;;;4.65;1.42;;;19.30;99.90;;;;;;5063144;28;20076;-66
2022/06/20 08:47:07;;;;;;;4.28;1.20;;;19.60;99.90;;;;;;5045468;28;20059;-67
2022/06/20 08:49:42;;;;;;;2.92;1.00;;;20.10;99.90;;;;;;5062933;28;20033;-67
2022/06/20 08:53:03;;;;;;;3.65;1.40;;;20.70;99.90;;;;;;5063168;28;20112;-68
2022/06/20 08:55:35;;;;;;;3.60;1.60;;;21.30;99.90;;;;;;5060614;28;20065;-70
2022/06/20 08:58:13;;;;;;;5.70;1.63;;;21.50;99.90;;;;;;5062840;28;20331;-69
2022/06/20 09:00:55;;;;;;;3.42;1.60;;;21.50;99.90;;;;;;5062840;28;20025;-69
2022/06/20 09:03:21;;;;;;;3.70;1.30;;;21.60;99.90;;;;;;5062972;28;20379;-68
2022/06/20 09:06:05;;;;;;;3.63;1.30;;;22.00;99.90;;;;;;5045512;28;20037;-68
2022/06/20 09:08:50;;;;;;;6.50;1.77;;;22.00;99.90;;;;;;5062783;28;20033;-68
2022/06/20 09:11:37;;;;;;;4.47;1.40;;;21.90;99.90;;;;;;5063346;28;20325;-68
2022/06/20 09:14:14;;;;;;;2.22;1.27;;;21.80;99.90;;;;;;5063307;28;20384;-69
2022/06/20 09:17:02;;;;;;;5.60;1.40;;;21.40;99.90;;;;;;5062655;28;20029;-70
2022/06/20 09:19:39;;;;;;;3.40;1.70;;;21.30;99.90;;;;;;5060437;28;20033;-68
2022/06/20 09:22:50;;;;;;;2.85;1.40;;;21.20;99.90;;;;;;5059400;28;20048;-68
2022/06/20 09:25:52;;;;;;;6.65;1.23;;;21.30;99.90;;;;;;5039065;28;20312;-67
2022/06/20 09:28:36;;;;;;;3.83;1.52;;;21.60;99.90;;;;;;5059356;28;20454;-67
2022/06/20 09:31:37;;;;;;;5.88;1.42;;;21.40;99.90;;;;;;5059768;28;20136;-66
2022/06/20 09:34:48;;;;;;;2.78;1.30;;;21.50;99.90;;;;;;5034216;28;20041;-68
2022/06/20 09:37:32;;;;;;;3.53;1.48;;;21.80;99.90;;;;;;5041530;28;20088;-66
2022/06/20 09:40:46;;;;;;;6.75;1.70;;;22.10;99.90;;;;;;5059441;28;20134;-68
2022/06/20 09:43:32;;;;;;;5.93;1.67;;;22.60;99.90;;;;;;5046265;28;20072;-66
2022/06/20 09:46:24;;;;;;;7.20;2.00;;;22.90;99.90;;;;;;5042039;28;20028;-68
2022/06/20 09:49:34;;;;;;;3.47;1.50;;;23.00;99.90;;;;;;5041846;28;20032;-67
2022/06/20 09:52:09;;;;;;;5.57;1.70;;;22.70;99.90;;;;;;4996927;28;20065;-67
2022/06/20 09:54:34;;;;;;;5.07;1.95;;;22.40;99.90;;;;;;5059415;28;20037;-68
2022/06/20 09:57:38;;;;;;;3.95;1.77;;;22.30;99.90;;;;;;5058904;28;20040;-68
2022/06/20 10:00:11;;;;;;;3.95;1.70;;;22.10;99.90;;;;;;5041571;28;20111;-67
2022/06/20 10:02:49;;;;;;;4.30;1.60;;;21.90;99.90;;;;;;5059484;28;20037;-68
2022/06/20 10:05:42;;;;;;;5.53;1.60;;;22.00;99.90;;;;;;5058816;28;20413;-67
2022/06/20 10:08:34;;;;;;;7.82;1.85;;;22.10;99.90;;;;;;5059267;28;20057;-68
2022/06/20 10:11:44;;;;;;;3.70;1.42;;;22.40;99.90;;;;;;5059202;28;20029;-67
2022/06/20 10:14:24;;;;;;;4.32;1.95;;;22.40;99.90;;;;;;5021734;28;20037;-66
2022/06/20 10:17:13;;;;;;;3.25;1.50;;;22.40;99.90;;;;;;5058534;28;20029;-66
2022/06/20 10:19:52;;;;;;;5.03;1.67;;;22.20;99.90;;;;;;5058513;28;20416;-67
2022/06/20 10:22:35;;;;;;;5.80;1.60;;;22.50;99.90;;;;;;5040987;28;20468;-67
2022/06/20 10:25:09;;;;;;;2.85;1.35;;;22.60;99.90;;;;;;5040966;28;20037;-67
2022/06/20 10:27:45;;;;;;;5.05;1.60;;;22.70;99.90;;;;;;5058339;28;20028;-69
2022/06/20 10:30:14;;;;;;;4.63;1.90;;;22.90;99.90;;;;;;5058295;28;20064;-67
2022/06/20 10:32:49;;;;;;;5.68;1.55;;;23.10;99.90;;;;;;5058011;28;20029;-65
2022/06/20 10:35:53;;;;;;;5.55;1.60;;;23.60;99.90;;;;;;5058105;28;20043;-67
2022/06/20 10:38:42;;;;;;;4.10;1.50;;;24.00;99.90;;;;;;5045654;28;20063;-67
2022/06/20 10:41:36;;;;;;;5.68;1.77;;;24.40;99.90;;;;;;5057894;28;20112;-66
2022/06/20 10:44:16;;;;;;;4.72;1.67;;;25.00;99.90;;;;;;5058390;28;20033;-69
2022/06/20 10:46:51;;;;;;;4.85;1.95;;;24.50;99.90;;;;;;5058830;28;20033;-69
2022/06/20 10:49:54;;;;;;;5.60;1.77;;;24.30;99.90;;;;;;5058600;28;20086;-69
2022/06/20 10:52:36;;;;;;;3.38;1.50;;;24.10;99.90;;;;;;5056969;28;20034;-68
2022/06/20 10:55:40;;;;;;;5.90;1.92;;;23.70;99.90;;;;;;5057680;28;20293;-69
2022/06/20 10:58:06;;;;;;;4.20;1.55;;;24.00;99.90;;;;;;5058288;28;20029;-68
2022/06/20 11:00:38;;;;;;;4.72;1.70;;;23.70;99.90;;;;;;5058185;28;20387;-69
2022/06/20 11:03:50;;;;;;;3.30;1.40;;;23.70;99.90;;;;;;5057886;28;20306;-70
2022/06/20 11:06:41;;;;;;;5.25;1.65;;;23.70;99.90;;;;;;5057783;28;20025;-68
2022/06/20 11:09:27;;;;;;;4.07;1.42;;;23.60;99.90;;;;;;5057681;28;20108;-69
2022/06/20 11:12:18;;;;;;;3.53;1.38;;;23.70;99.90;;;;;;5057016;28;20056;-70
2022/06/20 11:14:49;;;;;;;3.55;1.30;;;24.90;99.90;;;;;;5057549;28;20326;-69
2022/06/20 11:17:47;;;;;;;3.63;1.05;;;27.40;99.60;;;;;;5057697;28;20288;-68
2022/06/20 11:20:32;;;;;;;3.95;1.35;;;29.70;94.30;;;;;;5056981;28;20057;-69
2022/06/20 11:23:20;;;;;;;4.45;1.50;;;30.80;88.80;;;;;;5057297;28;20025;-69
2022/06/20 11:25:57;;;;;;;4.63;1.52;;;29.90;85.60;;;;;;5040786;28;20025;-70
2022/06/20 11:29:05;;;;;;;3.88;1.20;;;28.80;89.60;;;;;;5057219;28;20037;-68
2022/06/20 11:32:01;;;;;;;3.75;1.40;;;27.80;90.40;;;;;;5029232;28;20415;-68
2022/06/20 11:35:05;;;;;;;2.80;1.23;;;27.30;92.00;;;;;;5057148;28;20017;-66
2022/06/20 11:37:47;;;;;;;3.00;1.30;;;27.30;91.50;;;;;;5056889;28;20045;-68
2022/06/20 11:40:37;;;;;;;;;;;27.60;90.60;;;;;;5057869;28;20036;-67
2022/06/20 11:43:27;;;;;;;4.85;1.50;;;28.40;89.50;;;;;;5057732;28;20300;-69
2022/06/20 11:45:53;;;;;;;5.53;1.58;;;30.40;85.50;;;;;;5059239;28;20431;-69
2022/06/20 11:48:57;;;;;;;5.97;1.65;;;31.00;81.80;;;;;;5057217;28;20041;-69
2022/06/20 11:51:44;;;;;;;4.78;1.55;;;30.70;80.50;;;;;;4996351;28;20030;-69
2022/06/20 11:54:34;;;;;;;6.22;1.73;;;29.00;83.00;;;;;;5053512;28;20361;-69
2022/06/20 11:57:17;;;;;;;5.82;1.42;;;29.40;82.90;;;;;;5056899;28;20037;-69
2022/06/20 12:00:12;;;;;;;6.88;1.30;;;28.90;79.90;;;;;;5057372;28;20029;-68
2022/06/20 12:02:47;;;;;;;3.50;1.38;;;29.60;79.80;;;;;;5056827;28;20175;-69
2022/06/20 12:06:05;;;;;;;3.67;1.40;;;30.20;78.30;;;;;;5056724;28;20087;-67
2022/06/20 12:08:36;;;;;;;6.57;1.80;;;30.20;78.10;;;;;;5052465;28;20365;-68
2022/06/20 12:11:07;;;;;;;4.27;1.60;;;29.40;80.10;;;;;;5057340;28;20103;-69
2022/06/20 12:13:58;;;;;;;4.60;1.52;;;28.50;82.10;;;;;;5058897;28;20085;-70
2022/06/20 12:17:05;;;;;;;7.28;1.70;;;28.00;82.50;;;;;;5056634;28;20028;-70
2022/06/20 12:25:13;;;;;;;6.25;1.45;;;27.80;87.20;;;;;;5020368;28;20106;-68
2022/06/20 12:27:39;;;;;;;6.67;1.37;;;28.90;82.20;;;;;;5056640;28;20059;-68
2022/06/20 12:30:11;;;;;;;5.40;1.73;;;28.50;79.20;;;;;;5056678;28;20037;-68
2022/06/20 12:32:38;;;;;;;4.05;1.60;;;27.80;81.60;;;;;;5056451;28;20051;-68
2022/06/20 12:35:24;;;;;;;4.63;1.35;;;28.00;83.40;;;;;;5056416;28;20032;-67
2022/06/20 12:38:08;;;;;;;4.30;1.42;;;28.80;81.90;;;;;;5056542;28;20028;-70
2022/06/20 12:40:42;;;;;;;5.45;1.42;;;31.40;76.80;;;;;;5056794;28;20049;-68
2022/06/20 12:43:14;;;;;;;6.40;1.85;;;33.50;70.10;;;;;;5040279;28;20043;-69
2022/06/20 12:46:01;;;;;;;4.13;1.48;;;35.10;65.30;;;;;;5056454;28;20112;-68
2022/06/20 12:48:54;;;;;;;5.97;1.90;;;35.80;63.90;;;;;;5057251;28;20036;-68
2022/06/20 12:52:06;;;;;;;5.22;1.67;;;36.60;58.40;;;;;;5056819;28;20047;-69
2022/06/20 12:54:59;;;;;;;4.15;1.52;;;36.00;58.90;;;;;;4983334;28;20074;-67
2022/06/20 12:57:40;;;;;;;5.70;1.50;;;35.80;56.40;;;;;;5060097;28;20063;-70
2022/06/20 13:00:30;;;;;;;3.63;1.50;;;35.90;55.70;;;;;;5044675;28;20128;-71
2022/06/20 13:03:14;;;;;;;5.60;1.52;;;35.60;56.40;;;;;;5063982;28;20025;-68
2022/06/20 13:05:43;;;;;;;8.07;2.00;;;35.30;55.20;;;;;;5061949;28;20123;-68
2022/06/20 13:08:23;;;;;;;6.95;1.90;;;34.30;57.30;;;;;;5060953;28;20277;-68
2022/06/20 13:11:08;;;;;;;6.30;1.70;;;33.60;59.50;;;;;;5064560;28;20029;-69
2022/06/20 13:14:09;;;;;;;9.55;2.13;;;32.10;59.40;;;;;;5061226;28;20420;-67
2022/06/20 13:16:40;;;;;;;8.65;2.20;;;31.20;63.00;;;;;;5045231;28;20021;-65
2022/06/20 13:19:14;;;;;;;8.27;1.92;;;31.40;63.30;;;;;;5063555;28;20029;-68
2022/06/20 13:21:50;;;;;;;7.70;1.95;;;29.70;66.10;;;;;;5061502;28;20324;-69
2022/06/20 13:24:33;;;;;;;10.30;2.35;;;29.10;68.40;;;;;;5061228;28;20292;-67
2022/06/20 13:27:01;;;;;;;8.73;2.30;;;28.30;69.60;;;;;;5044366;28;20033;-69
2022/06/20 13:29:33;;;;;;;9.18;2.00;;;27.50;72.00;;;;;;5063210;28;20021;-67
2022/06/20 13:32:22;;;;;;;5.87;2.00;;;27.90;72.00;;;;;;5059840;28;20345;-69
2022/06/20 13:35:01;;;;;;;7.95;2.00;;;28.50;71.00;;;;;;5060831;28;20424;-68
2022/06/20 13:37:48;;;;;;;9.20;1.88;;;28.70;71.30;;;;;;5060697;28;20132;-69
2022/06/20 13:40:26;;;;;;;9.25;2.20;;;30.50;67.70;;;;;;5044706;28;20308;-68
2022/06/20 13:43:20;;;;;;;5.00;1.90;;;29.70;67.70;;;;;;5062292;28;20123;-68
2022/06/20 13:46:01;;;;;;;6.65;1.67;;;28.50;70.50;;;;;;5059204;28;20029;-69
2022/06/20 13:48:46;;;;;;;8.88;1.90;;;29.30;70.90;;;;;;5060711;28;20025;-68
2022/06/20 13:51:25;;;;;;;6.15;1.95;;;31.40;66.30;;;;;;5061391;28;20028;-69
2022/06/20 13:54:15;;;;;;;7.75;1.95;;;32.70;62.40;;;;;;5062327;28;20037;-69
2022/06/20 13:57:19;;;;;;;6.90;2.38;;;33.30;60.90;;;;;;5060693;28;20121;-67
2022/06/20 14:00:18;;;;;;;7.38;2.10;;;33.00;60.00;;;;;;5042559;28;20025;-69
2022/06/20 14:03:06;;;;;;;5.35;1.92;;;30.80;62.40;;;;;;5059310;28;20029;-69
2022/06/20 14:05:34;;;;;;;6.57;2.13;;;31.30;63.70;;;;;;5041783;28;20060;-67